Alfred, NY

7:10 AM EST on February 21, 2017 (GMT -0500)
Ardachy Farm | | Change Station

Elev 1877 ft 42.28 °N, 77.77 °W | Updated 15 seconds ago

Partly Cloudy
Partly Cloudy
34.5 °F
Feels Like 24 °F
N
17.4
Wind Variable Wind from SW
Gusts 22.1 mph

Today
High -- | Low -- °F
--% Chance of Precip.
Yesterday
High -- | Low -- °F
Precip. -- in
Pressure 30.19 in
Visibility 10.0 miles
Clouds Clear
Windchill 24 °F
Dew Point 10 °F
Humidity 35%
Rainfall 0.00 in
Snow Depth Not available.
6:58 AM 5:51 PM
Waning Crescent, 26% visible
METAR KELZ 211156Z AUTO 15008KT 120V180 10SM CLR 03/M09 A3014 RMK AO2 SLP224 T00281094 10028 21006 58008
Pressure 30.19 in
Visibility 10.0 miles
Clouds Clear
Windchill 24 °F
Dew Point 10 °F
Humidity 35%
Rainfall 0.00 in
Snow Depth Not available.
6:58 AM 5:51 PM
Waning Crescent, 26% visible
METAR KELZ 211156Z AUTO 15008KT 120V180 10SM CLR 03/M09 A3014 RMK AO2 SLP224 T00281094 10028 21006 58008

Get Your Daily Forecast Email!

Thanks for signing up!

Be on the lookout for a verification email in your inbox.

You'll start receiving the daily forecast at 8 AM.

×

10-Day Weather Forecast

Almanac

Astronomy

Feb. 21, 2017 Rise Set
Actual Time
Civil Twilight
Nautical Twilight
Astronomical Twilight
Moon
Length of Visible Light
Length of Day
Tomorrow will be .
, % of the Moon is Illuminated

Today's Extremes

State Highs State Lows

Community

WunderPhotos

Upload Photos

1,962,540 photos uploaded!

WunderBlog® & News

Nearby

Air Quality

  Air Quality AQ Index Pollutant
Not available.

Snow Depth

Station Depth Elevation

Earthquake Activity

City Distance Mag. Time & Date
Minimum magnitude displayed is 2.5.

Coastal Water Temperatures

Place Temperature

Stations

Nearby Weather Stations

Station Location Temp. Windchill Dew Point Humidity Wind Precip. Elev Updated Type
                   

Watches & Warnings

There are currently no watches in effect.